Weather at Don Jose Airport

Public forecast

Using degrees Celsius for public forecast. Weather courtesy of forecast.io.

Closest aviation weather report (METAR) to Don Jose Airport

Closest report is Rosario Islas Malvinas International Airport, 4.6 nm (8.5 km) S.

2024/07/17 13:00 (retrieved 33 minutes ago)

SAAR 171300Z VRB02KT 7000 NSC 08/07 Q1025

Closest aviation forecast (TAF) to Don Jose Airport

Closest forecast is Rosario Islas Malvinas International Airport, 4.6 nm (8.5 km) S.

2024/07/17 12:00 (retrieved 2 hours ago)

TAF SAAR 171100Z 1712/1812 VRB03KT 4000 BR NSC TX19/1718Z TN04/1712Z TEMPO 1712/1713 0700 BCFG BECMG 1713/1715 02010KT CAVOK TEMPO 1807/1811 5000 BR NSC